Latest Weather Observations for Redesdale

IDV60801

Issued at 11:31 pm EDT Monday 2 March 2015 (issued every 30 minutes, with the page automatically refreshed every 10 minutes)

About weather observations | Map of weather stations | Latest weather observations for VIC | Other Formats
Station Details ID: 088051 Name: REDESDALE Lat: -37.02 Lon: 144.52 Height: 290.0 m
Data from the previous 72 hours. | See also: Recent months at Redesdale
Date/Time
EDT
Temp
°C
App
Temp
°C
Dew
Point
Rel
Hum
%
Delta-T
°C
Wind Press
QNH
hPa
Press
MSL
hPa
Rain
since 9 am
mm
Dir
 
Spd
km/h
Gust
km/h
Spd
kts
Gust
kts
02/11:30pm 18.1 15.5 7.8 51 5.3 S 11 17 6 9 - - 0.0
02/11:00pm 17.5 15.5 6.1 47 5.7 SSE 6 7 3 4 - - 0.0
02/10:30pm 18.5 16.0 5.0 41 6.6 SSW 7 9 4 5 - - 0.0
02/10:00pm 18.7 16.5 5.2 41 6.6 SSW 6 9 3 5 - - 0.0
02/09:30pm 18.7 16.7 6.9 46 6.0 SSW 7 9 4 5 - - 0.0
02/09:00pm 19.1 17.2 6.9 45 6.2 SW 6 9 3 5 - - 0.0
02/08:30pm 20.7 19.1 4.3 34 8.0 SE 2 2 1 1 - - 0.0
02/08:00pm 21.4 19.2 3.6 31 8.7 SE 4 6 2 3 - - 0.0
02/07:30pm 22.9 20.7 3.4 28 9.6 ESE 4 6 2 3 - - 0.0
02/07:00pm 24.0 22.3 1.6 23 10.7 CALM 0 2 0 1 - - 0.0
02/06:30pm 24.5 22.4 1.4 22 11.0 SSW 2 6 1 3 - - 0.0
02/06:00pm 24.9 22.4 1.7 22 11.2 SE 4 6 2 3 - - 0.0
02/05:30pm 24.9 22.8 1.7 22 11.2 N 2 6 1 3 - - 0.0
02/05:00pm 25.4 23.0 2.2 22 11.3 ESE 4 7 2 4 - - 0.0
02/04:30pm 25.1 22.6 1.3 21 11.4 WSW 4 9 2 5 - - 0.0
02/04:00pm 25.6 22.6 2.3 22 11.4 NNW 7 15 4 8 - - 0.0
02/03:30pm 26.2 23.7 3.5 23 11.4 NE 6 9 3 5 - - 0.0
02/03:00pm 23.5 20.8 2.4 25 10.2 WNW 6 9 3 5 - - 0.0
02/02:30pm 23.7 21.3 4.1 28 9.8 SSE 6 9 3 5 - - 0.0
02/02:00pm 23.7 21.0 3.6 27 9.9 NNW 7 13 4 7 - - 0.0
02/01:30pm 21.9 19.4 4.9 33 8.5 N 7 15 4 8 - - 0.0
02/01:00pm 21.2 18.3 4.7 34 8.2 N 9 17 5 9 - - 0.0
02/12:30pm 21.1 18.4 5.5 36 7.9 NNE 9 15 5 8 - - 0.0
02/12:00pm 20.8 17.7 5.6 37 7.7 N 11 17 6 9 - - 0.0
02/11:30am 20.0 17.5 6.4 41 6.9 NE 9 17 5 9 - - 0.0
02/11:00am 18.6 16.4 6.4 45 6.1 NNE 7 13 4 7 - - 0.0
02/10:30am 17.9 15.2 5.5 44 6.1 NE 9 17 5 9 - - 0.0
02/10:00am 17.8 15.7 6.0 46 5.9 ENE 6 11 3 6 - - 0.0
02/09:30am 16.3 14.9 7.3 55 4.5 SE 4 9 2 5 - - 0.0
02/09:00am 14.2 12.5 8.2 67 3.0 SSE 7 11 4 6 - - 0.0
02/08:30am 11.2 10.6 9.1 87 1.1 SW 2 4 1 2 - - 0.0
02/08:00am 8.6 7.3 7.5 93 0.5 SSW 4 6 2 3 - - 0.0
02/07:30am 6.5 4.7 5.5 93 0.5 S 4 6 2 3 - - 0.0
02/07:00am 7.1 5.1 6.4 95 0.3 SSW 6 7 3 4 - - 0.0
02/06:30am 6.9 5.2 6.0 94 0.4 SW 4 6 2 3 - - 0.0
02/06:00am 6.9 5.2 6.0 94 0.4 SSW 4 6 2 3 - - 0.0
02/05:30am 6.2 3.9 5.0 92 0.5 SSW 6 6 3 3 - - 0.0
02/05:00am 7.8 5.9 6.6 92 0.6 SSW 6 6 3 3 - - 0.0
02/04:30am 7.0 4.8 5.5 90 0.7 SW 6 7 3 4 - - 0.0
02/04:00am 8.9 7.5 7.2 89 0.8 SSW 4 7 2 4 - - 0.0
02/03:30am 8.9 6.9 7.0 88 0.9 SSW 7 9 4 5 - - 0.0
02/03:00am 9.7 7.0 7.3 85 1.2 S 11 13 6 7 - - 0.0
02/02:30am 10.4 7.4 7.8 84 1.3 S 13 17 7 9 - - 0.0
02/02:00am 10.7 8.6 8.1 84 1.3 SSW 9 15 5 8 - - 0.0
02/01:30am 11.1 8.6 8.3 83 1.4 SSW 11 15 6 8 - - 0.0
02/01:00am 12.0 9.2 8.7 80 1.7 S 13 19 7 10 - - 0.0
02/12:30am 12.9 9.0 8.6 75 2.2 S 19 24 10 13 - - 0.0
02/12:00am 12.9 10.2 9.0 77 2.0 S 13 22 7 12 - - 0.0
 
Date/Time
EDT
Temp
°C
App
Temp
°C
Dew
Point
Rel
Hum
%
Delta-T
°C
Wind Press
QNH
hPa
Press
MSL
hPa
Rain
since 9 am
mm
Dir
 
Spd
km/h
Gust
km/h
Spd
kts
Gust
kts
01/11:30pm 12.9 10.6 9.0 77 2.0 S 11 17 6 9 - - 0.0
01/11:00pm 13.3 10.7 9.2 76 2.1 S 13 19 7 10 - - 0.0
01/10:30pm 13.9 11.2 9.1 73 2.5 SSE 13 19 7 10 - - 0.0
01/10:00pm 14.3 11.7 9.3 72 2.6 SSE 13 20 7 11 - - 0.0
01/09:30pm 14.4 12.2 9.4 72 2.6 SSE 11 15 6 8 - - 0.0
01/09:00pm 14.6 12.6 10.0 74 2.4 SSE 11 15 6 8 - - 0.0
01/08:30pm 14.8 13.1 9.8 72 2.6 SE 9 17 5 9 - - 0.0
01/08:00pm 15.7 12.8 9.6 67 3.2 SSE 15 20 8 11 - - 0.0
01/07:30pm 17.0 13.2 9.7 62 3.9 SSE 20 28 11 15 - - 0.0
01/07:00pm 18.6 14.3 9.4 55 4.9 SSE 22 32 12 17 - - 0.0
01/06:30pm 20.0 15.0 9.6 51 5.6 S 26 35 14 19 - - 0.0
01/06:00pm 20.8 15.3 9.1 47 6.3 SSE 28 41 15 22 - - 0.0
01/05:30pm 22.1 16.1 8.6 42 7.2 S 30 41 16 22 - - 0.0
01/05:00pm 23.3 18.2 7.8 37 8.3 S 24 39 13 21 - - 0.0
01/04:30pm 22.7 16.9 8.0 39 7.8 S 28 46 15 25 - - 0.0
01/04:00pm 22.9 18.6 7.8 38 8.0 S 20 33 11 18 - - 0.0
01/03:30pm 23.6 18.7 6.8 34 8.8 SSW 22 37 12 20 - - 0.0
01/03:00pm 24.6 18.8 8.1 35 8.9 S 28 39 15 21 - - 0.0
01/02:30pm 21.9 16.4 7.7 40 7.5 S 26 41 14 22 - - 0.0
01/02:08pm 23.2 17.3 7.3 36 8.4 S 28 46 15 25 - - 0.0
01/02:00pm 22.4 17.4 6.6 36 8.2 SSW 22 32 12 17 - - 0.0
01/01:30pm 22.9 17.7 7.4 37 8.2 SSW 24 35 13 19 - - 0.0
01/01:00pm 22.1 16.2 7.5 39 7.7 S 28 41 15 22 - - 0.0
01/12:30pm 21.7 16.6 9.3 45 6.7 SSW 26 37 14 20 - - 0.0
01/12:00pm 20.8 16.0 8.8 46 6.4 SSW 24 37 13 20 - - 0.0
01/11:30am 20.8 16.7 10.0 50 5.9 S 22 33 12 18 - - 0.0
01/11:00am 20.0 15.7 9.3 50 5.7 S 22 41 12 22 - - 0.0
01/10:30am 19.0 14.1 10.0 56 4.9 S 26 37 14 20 - - 0.0
01/10:00am 17.6 13.0 9.5 59 4.3 SSW 24 37 13 20 - - 0.0
01/09:30am 16.8 13.0 9.7 63 3.8 SSW 20 33 11 18 - - 0.0
01/09:00am 16.0 13.0 10.5 70 3.0 SSW 17 24 9 13 - - 4.2
01/08:30am 14.7 11.6 10.3 75 2.3 SSW 17 26 9 14 - - 4.2
01/08:00am 13.5 10.7 10.1 80 1.8 SSW 15 24 8 13 - - 4.2
01/07:30am 12.2 10.4 9.4 83 1.4 SW 9 13 5 7 - - 4.2
01/07:00am 12.3 9.4 9.5 83 1.4 SSW 15 20 8 11 - - 4.2
01/06:30am 12.8 9.9 9.6 81 1.7 SSW 15 24 8 13 - - 4.2
01/06:00am 13.4 10.2 9.8 79 1.9 SSW 17 24 9 13 - - 4.2
01/05:30am 14.0 10.6 10.6 80 1.8 SSW 19 26 10 14 - - 4.2
01/05:00am 14.4 9.7 10.8 79 1.9 S 26 37 14 20 - - 4.2
01/04:30am 15.8 11.7 12.7 82 1.7 SSW 26 37 14 20 - - 4.2
01/04:00am 16.7 14.3 13.8 83 1.7 SSW 19 28 10 15 - - 4.2
01/03:30am 17.5 16.7 15.0 85 1.5 SSW 13 19 7 10 - - 4.2
01/03:00am 17.6 17.0 15.6 88 1.2 SSW 13 19 7 10 - - 4.2
01/02:30am 17.8 17.6 15.8 88 1.2 SSW 11 19 6 10 - - 4.2
01/02:00am 17.9 15.6 15.7 87 1.3 SSW 22 32 12 17 - - 4.2
01/01:30am 18.5 19.1 16.8 90 1.0 SW 9 19 5 10 - - 4.2
01/01:00am 18.4 20.1 17.1 92 0.8 W 4 7 2 4 - - 4.2
01/12:30am 18.5 20.2 17.2 92 0.8 ENE 4 6 2 3 - - 4.0
01/12:00am 18.6 20.3 17.1 91 0.9 SSE 4 7 2 4 - - 3.6
 
Date/Time
EDT
Temp
°C
App
Temp
°C
Dew
Point
Rel
Hum
%
Delta-T
°C
Wind Press
QNH
hPa
Press
MSL
hPa
Rain
since 9 am
mm
Dir
 
Spd
km/h
Gust
km/h
Spd
kts
Gust
kts
28/11:30pm 18.7 18.7 17.2 91 0.9 SSE 13 17 7 9 - - 3.2
28/11:00pm 18.6 19.3 17.1 91 0.9 S 9 17 5 9 - - 3.0
28/10:30pm 18.9 18.4 16.9 88 1.2 SSW 15 26 8 14 - - 2.0
28/10:00pm 19.0 17.5 16.8 87 1.3 S 20 28 11 15 - - 1.4
28/09:30pm 19.3 17.4 16.7 85 1.6 SW 22 33 12 18 - - 0.8
28/09:00pm 20.2 17.8 16.4 79 2.3 SSW 24 37 13 20 - - 0.4
28/08:30pm 19.7 14.9 16.7 83 1.8 SSW 37 57 20 31 - - 0.2
28/08:17pm 22.3 17.9 15.2 64 4.3 WSW 32 57 17 31 - - 0.2
28/08:12pm 27.8 25.3 12.2 38 9.2 NW 17 57 9 31 - - 0.2
28/08:00pm 30.4 26.9 8.7 26 12.2 N 17 26 9 14 - - 0.2
28/07:30pm 30.8 27.2 8.5 25 12.5 N 17 26 9 14 - - 0.2
28/07:00pm 31.0 27.5 8.7 25 12.6 N 17 22 9 12 - - 0.2
28/06:30pm 31.9 28.0 8.8 24 13.1 N 19 32 10 17 - - 0.2
28/06:00pm 32.6 29.3 9.4 24 13.3 N 17 26 9 14 - - 0.2
28/05:30pm 31.0 27.5 8.7 25 12.6 NNE 17 28 9 15 - - 0.2
28/05:00pm 31.6 28.4 8.6 24 13.0 NNE 15 26 8 14 - - 0.2
28/04:30pm 31.6 28.7 8.0 23 13.2 NNE 13 22 7 12 - - 0.2
28/04:00pm 30.2 26.0 7.4 24 12.5 N 19 32 10 17 - - 0.2
28/03:30pm 29.6 26.0 6.9 24 12.3 NNE 15 22 8 12 - - 0.2
28/03:00pm 29.5 25.7 7.4 25 12.1 N 17 26 9 14 - - 0.2
28/02:30pm 28.8 27.3 9.0 29 11.1 NNE 7 15 4 8 - - 0.2
28/02:00pm 26.7 23.9 8.6 32 10.0 N 13 17 7 9 - - 0.2
28/01:30pm 26.1 24.1 8.6 33 9.6 N 9 15 5 8 - - 0.2
28/01:00pm 26.2 24.7 9.1 34 9.5 NE 7 13 4 7 - - 0.2
28/12:30pm 24.9 22.5 8.8 36 8.8 NNE 11 15 6 8 - - 0.2
28/12:00pm 24.1 22.9 10.4 42 7.7 NNE 7 11 4 6 - - 0.2
28/11:30am 22.7 21.3 10.8 47 6.7 NNE 9 13 5 7 - - 0.2
28/11:00am 21.6 21.1 11.9 54 5.5 N 6 9 3 5 - - 0.2
28/10:30am 20.2 20.1 13.2 64 4.0 ENE 6 11 3 6 - - 0.2
28/10:00am 20.0 21.2 13.7 67 3.7 CALM 0 2 0 1 - - 0.2
28/09:30am 19.6 20.6 14.2 71 3.2 SSW 2 4 1 2 - - 0.0
28/09:00am 19.8 19.7 12.1 61 4.3 SW 4 6 2 3 - - 0.0
28/08:30am 19.5 20.2 12.3 63 4.1 CALM 0 0 0 0 - - 0.0
28/08:00am 19.0 18.7 11.3 61 4.3 SSW 4 6 2 3 - - 0.0
28/07:30am 18.6 17.7 11.2 62 4.1 SSW 7 9 4 5 - - 0.0
28/07:00am 18.0 17.1 11.3 65 3.7 SW 7 9 4 5 - - 0.0
28/06:30am 17.8 17.0 11.6 67 3.4 SW 7 9 4 5 - - 0.0
28/06:00am 17.7 17.2 12.2 70 3.1 S 6 6 3 3 - - 0.0
28/05:30am 17.4 16.9 12.1 71 3.0 SW 6 7 3 4 - - 0.0
28/05:00am 17.5 17.4 12.2 71 3.0 WSW 4 6 2 3 - - 0.0
28/04:30am 17.8 18.4 11.8 68 3.3 CALM 0 2 0 1 - - 0.0
28/04:00am 17.9 18.5 11.9 68 3.3 CALM 0 2 0 1 - - 0.0
28/03:30am 17.7 17.9 11.9 69 3.2 SSW 2 7 1 4 - - 0.0
28/03:00am 18.1 17.4 11.9 67 3.5 SSW 7 9 4 5 - - 0.0
28/02:30am 18.2 18.4 11.7 66 3.6 SSW 2 7 1 4 - - 0.0
28/02:00am 18.4 17.3 11.9 66 3.6 S 9 13 5 7 - - 0.0
28/01:30am 18.2 17.6 11.7 66 3.6 SW 6 9 3 5 - - 0.0
28/01:00am 18.5 17.4 11.8 65 3.7 SSW 9 13 5 7 - - 0.0
28/12:30am 18.5 17.9 11.6 64 3.8 SSW 6 9 3 5 - - 0.0
28/12:00am 18.8 18.0 11.1 61 4.2 SSW 6 7 3 4 - - 0.0

Other Formats:

Comma delimited format used in spreadsheet applications
http://www.bom.gov.au/fwo/IDV60801/IDV60801.94859.axf

JavaScript Object Notation format (JSON) in row-major order
http://www.bom.gov.au/fwo/IDV60801/IDV60801.94859.json